Time;durP1;ratioP1;P1;durP2;ratioP2;P2;SDS_P1;SDS_P2;PMS_P1;PMS_P2;Temp;Humidity;BMP_temperature;BMP_pressure;BME280_temperature;BME280_humidity;BME280_pressure;Samples;Min_cycle;Max_cycle;Signal;HPM_P1;HPM_P2
2022/06/13 00:00:41;;;;;;;15.90;12.65;;;;;;;;;;8532497;27;20061;-91
2022/06/13 00:04:44;;;;;;;17.20;12.00;;;;;;;;;;8532384;27;20065;-86
2022/06/13 00:08:48;;;;;;;18.15;10.95;;;;;;;;;;8532379;27;20047;-88
2022/06/13 00:12:51;;;;;;;13.13;10.95;;;;;;;;;;8525204;27;20389;-91
2022/06/13 00:16:53;;;;;;;17.30;11.27;;;;;;;;;;8513806;27;20043;-89
2022/06/13 00:20:56;;;;;;;14.55;11.07;;;;;;;;;;8507832;27;20051;-90
2022/06/13 00:25:00;;;;;;;13.70;11.07;;;;;;;;;;8530225;27;20262;-88
2022/06/13 00:29:04;;;;;;;15.32;10.70;;;;;;;;;;8530549;27;20046;-89
2022/06/13 00:33:07;;;;;;;13.30;10.95;;;;;;;;;;8523083;27;20122;-92
2022/06/13 00:37:10;;;;;;;14.40;11.77;;;;;;;;;;8528965;27;20050;-89
2022/06/13 00:41:17;;;;;;;15.30;11.43;;;;;;;;;;8531662;27;20115;-90
2022/06/13 00:45:23;;;;;;;15.27;12.88;;;;;;;;;;8531999;27;20478;-91
2022/06/13 00:49:29;;;;;;;17.30;13.32;;;;;;;;;;8531726;27;20043;-89
2022/06/13 00:53:36;;;;;;;19.83;13.68;;;;;;;;;;8531561;27;20405;-89
2022/06/13 00:57:40;;;;;;;18.48;13.43;;;;;;;;;;8531556;27;20046;-90
2022/06/13 01:01:43;;;;;;;18.10;12.77;;;;;;;;;;8531474;27;20104;-91
2022/06/13 01:05:49;;;;;;;21.60;13.45;;;;;;;;;;8531394;27;20474;-91
2022/06/13 01:14:41;;;;;;;14.23;11.60;;;;;;;;;;8531332;27;20087;-90
2022/06/13 01:18:51;;;;;;;;;;;;;;;;;;8526227;27;20047;-89
2022/06/13 01:23:33;;;;;;;12.98;11.40;;;;;;;;;;8530955;27;19926;-91
2022/06/13 01:28:12;;;;;;;16.67;11.55;;;;;;;;;;8530770;27;20478;-90
2022/06/13 01:32:27;;;;;;;15.82;12.20;;;;;;;;;;8522702;27;20058;-90
2022/06/13 01:36:41;;;;;;;15.48;11.35;;;;;;;;;;8537187;27;20087;-90
2022/06/13 01:41:00;;;;;;;13.18;11.52;;;;;;;;;;8536907;27;20134;-87
2022/06/13 01:45:12;;;;;;;15.90;10.75;;;;;;;;;;8536815;27;20051;-87
2022/06/13 01:49:26;;;;;;;12.02;10.40;;;;;;;;;;8536581;27;20110;-90
2022/06/13 01:53:44;;;;;;;13.52;10.77;;;;;;;;;;8536719;27;20046;-90
2022/06/13 01:57:53;;;;;;;13.63;10.15;;;;;;;;;;8536388;27;20043;-88
2022/06/13 02:02:02;;;;;;;12.18;9.73;;;;;;;;;;8536930;27;20041;-89
2022/06/13 02:06:10;;;;;;;12.98;9.32;;;;;;;;;;8537200;27;20039;-91
2022/06/13 02:10:18;;;;;;;12.98;10.13;;;;;;;;;;8537254;27;20046;-93
2022/06/13 02:14:26;;;;;;;13.00;10.52;;;;;;;;;;8536911;27;20091;-88
2022/06/13 02:18:33;;;;;;;11.52;10.02;;;;;;;;;;8536670;27;20138;-90
2022/06/13 02:22:40;;;;;;;14.82;10.40;;;;;;;;;;8536259;27;20050;-94
2022/06/13 02:26:46;;;;;;;14.20;10.45;;;;;;;;;;8536230;27;20034;-89
2022/06/13 02:30:56;;;;;;;16.00;10.95;;;;;;;;;;8521720;27;20047;-91
2022/06/13 02:35:04;;;;;;;12.95;9.90;;;;;;;;;;8536312;27;20038;-88
2022/06/13 02:39:12;;;;;;;11.60;10.15;;;;;;;;;;8535942;27;20039;-90
2022/06/13 02:43:20;;;;;;;13.45;10.88;;;;;;;;;;8535785;27;20512;-93
2022/06/13 02:47:28;;;;;;;13.57;11.27;;;;;;;;;;8535391;27;20070;-91
2022/06/13 02:51:39;;;;;;;16.02;13.00;;;;;;;;;;8527191;27;20493;-91
2022/06/13 02:55:46;;;;;;;20.17;14.65;;;;;;;;;;8530767;27;20099;-92
2022/06/13 03:00:02;;;;;;;14.80;12.70;;;;;;;;;;8535318;27;20038;-93
2022/06/13 03:04:12;;;;;;;13.68;12.05;;;;;;;;;;8535163;27;20095;-87
2022/06/13 03:08:24;;;;;;;18.70;14.93;;;;;;;;;;8521812;27;20478;-87
2022/06/13 03:12:35;;;;;;;22.33;15.43;;;;;;;;;;8535141;27;20039;-87
2022/06/13 03:16:46;;;;;;;35.73;23.33;;;;;;;;;;8534813;27;20046;-91
2022/06/13 03:20:52;;;;;;;41.40;18.83;;;;;;;;;;8534854;27;20043;-92
2022/06/13 03:25:01;;;;;;;26.85;18.27;;;;;;;;;;8534462;27;20640;-94
2022/06/13 03:29:12;;;;;;;23.50;16.98;;;;;;;;;;8530836;27;20043;-92
2022/06/13 03:37:42;;;;;;;21.13;17.40;;;;;;;;;;8527293;27;20296;-92
2022/06/13 03:41:49;;;;;;;20.42;16.60;;;;;;;;;;8526041;27;20130;-91
2022/06/13 03:45:57;;;;;;;17.88;15.10;;;;;;;;;;8533535;27;20042;-93
2022/06/13 03:50:08;;;;;;;18.90;13.60;;;;;;;;;;8533477;27;20046;-89
2022/06/13 03:54:14;;;;;;;18.27;13.30;;;;;;;;;;8533106;27;20038;-87
2022/06/13 03:58:23;;;;;;;20.15;14.98;;;;;;;;;;8533980;27;20405;-92
2022/06/13 04:02:31;;;;;;;25.27;19.92;;;;;;;;;;8534342;27;20043;-93
2022/06/13 04:06:37;;;;;;;22.48;19.95;;;;;;;;;;8532359;27;20070;-94
2022/06/13 04:10:52;;;;;;;22.05;18.17;;;;;;;;;;8533798;27;20039;-93
2022/06/13 04:15:25;;;;;;;18.20;16.30;;;;;;;;;;8534260;27;20121;-94
2022/06/13 04:19:43;;;;;;;21.02;18.20;;;;;;;;;;8522775;27;20043;-95
2022/06/13 04:23:52;;;;;;;22.25;17.45;;;;;;;;;;8533282;27;20047;-94
2022/06/13 04:28:01;;;;;;;20.92;17.58;;;;;;;;;;8533510;27;20084;-95
2022/06/13 04:32:09;;;;;;;17.80;13.98;;;;;;;;;;8533473;27;20049;-96
2022/06/13 04:36:14;;;;;;;14.52;12.35;;;;;;;;;;8518645;27;20050;-92
2022/06/13 04:40:21;;;;;;;19.08;13.88;;;;;;;;;;8533171;27;20043;-91
2022/06/13 04:44:26;;;;;;;19.42;15.13;;;;;;;;;;8519366;27;20118;-94
2022/06/13 04:48:29;;;;;;;23.98;17.27;;;;;;;;;;8533736;27;20043;-93
2022/06/13 04:52:36;;;;;;;25.10;17.67;;;;;;;;;;8533624;27;20057;-92
2022/06/13 04:56:39;;;;;;;19.08;15.73;;;;;;;;;;8534095;27;20474;-95
2022/06/13 05:00:43;;;;;;;20.17;14.77;;;;;;;;;;8536985;27;20046;-94
2022/06/13 05:04:47;;;;;;;18.80;12.38;;;;;;;;;;8541652;27;20038;-95
2022/06/13 05:08:57;;;;;;;15.48;11.43;;;;;;;;;;8551884;27;20054;-94
2022/06/13 05:13:35;;;;;;;12.40;9.30;;;;;;;;;;8567032;27;20094;-89
2022/06/13 05:18:24;;;;;;;10.02;8.43;;;;;;;;;;8570073;27;20064;-89
2022/06/13 05:22:58;;;;;;;14.30;9.30;;;;;;;;;;8558636;27;20119;-87
2022/06/13 05:32:44;;;;;;;10.73;8.13;;;;;;;;;;8459650;28;20103;-88
2022/06/13 05:36:55;;;;;;;8.98;7.53;;;;;;;;;;8484965;28;20044;-93
2022/06/13 05:45:40;;;;;;;9.55;6.82;;;;;;;;;;8486738;28;20615;-94
2022/06/13 05:54:23;;;;;;;7.65;6.25;;;;;;;;;;8453001;28;20035;-89
2022/06/13 05:58:56;;;;;;;8.80;5.93;;;;;;;;;;8472155;28;20550;-87
2022/06/13 06:03:02;;;;;;;8.57;5.90;;;;;;;;;;8445226;28;20051;-94
2022/06/13 06:07:16;;;;;;;6.80;5.30;;;;;;;;;;8503511;27;20084;-93
2022/06/13 06:11:25;;;;;;;8.75;5.75;;;;;;;;;;8559251;27;20039;-95
2022/06/13 06:15:28;;;;;;;9.02;5.28;;;;;;;;;;8547328;27;20049;-93
2022/06/13 06:19:33;;;;;;;5.75;4.60;;;;;;;;;;8556914;27;20473;-87
2022/06/13 06:23:57;;;;;;;7.28;4.50;;;;;;;;;;8553577;27;20050;-88
2022/06/13 06:28:00;;;;;;;6.57;4.80;;;;;;;;;;8553962;27;20046;-87
2022/06/13 06:32:03;;;;;;;7.22;4.95;;;;;;;;;;8524526;27;20069;-90
2022/06/13 06:36:10;;;;;;;7.40;4.80;;;;;;;;;;8541390;27;20042;-86
2022/06/13 06:40:19;;;;;;;7.55;4.68;;;;;;;;;;8490859;27;20063;-90
2022/06/13 06:44:22;;;;;;;7.65;4.28;;;;;;;;;;8520395;27;20045;-90
2022/06/13 06:48:26;;;;;;;6.03;4.53;;;;;;;;;;8527890;27;20094;-90
2022/06/13 06:52:29;;;;;;;5.50;4.20;;;;;;;;;;8523766;27;20043;-89
2022/06/13 07:00:55;;;;;;;6.47;4.18;;;;;;;;;;8521520;27;20047;-87
2022/06/13 07:05:03;;;;;;;8.45;4.20;;;;;;;;;;8526596;27;20482;-87
2022/06/13 07:09:05;;;;;;;5.55;4.63;;;;;;;;;;8530078;27;20409;-87
2022/06/13 07:18:11;;;;;;;6.43;3.92;;;;;;;;;;8479496;27;20062;-89
2022/06/13 07:22:27;;;;;;;4.95;3.60;;;;;;;;;;8490820;27;20050;-86
2022/06/13 07:26:36;;;;;;;7.72;3.78;;;;;;;;;;8537104;27;20042;-87
2022/06/13 07:31:07;;;;;;;5.07;3.90;;;;;;;;;;8539872;27;20468;-88
2022/06/13 07:35:18;;;;;;;7.30;4.32;;;;;;;;;;8530683;27;20038;-87
2022/06/13 07:39:33;;;;;;;7.50;4.22;;;;;;;;;;8510815;27;20053;-85
2022/06/13 07:43:37;;;;;;;6.50;4.93;;;;;;;;;;8475054;27;20115;-85
2022/06/13 07:47:49;;;;;;;8.40;5.25;;;;;;;;;;8517616;27;20091;-85
2022/06/13 07:51:53;;;;;;;12.00;5.97;;;;;;;;;;8522094;27;20559;-89
2022/06/13 07:55:58;;;;;;;9.85;5.10;;;;;;;;;;8517792;27;20050;-86
2022/06/13 08:00:02;;;;;;;14.20;7.38;;;;;;;;;;8517694;27;20046;-86
2022/06/13 08:04:12;;;;;;;15.10;7.78;;;;;;;;;;8528962;27;20050;-88
2022/06/13 08:08:20;;;;;;;10.20;5.47;;;;;;;;;;8520640;27;20104;-87
2022/06/13 08:12:23;;;;;;;8.15;5.00;;;;;;;;;;8516752;27;20127;-87
2022/06/13 08:16:29;;;;;;;7.15;5.10;;;;;;;;;;8528554;27;20462;-88
2022/06/13 08:20:43;;;;;;;8.77;5.30;;;;;;;;;;8527434;27;20046;-89
2022/06/13 08:24:54;;;;;;;10.23;5.70;;;;;;;;;;8429812;28;20113;-88
2022/06/13 08:29:10;;;;;;;7.72;5.40;;;;;;;;;;8454298;28;20415;-87
2022/06/13 08:33:20;;;;;;;10.75;6.80;;;;;;;;;;8462205;28;20474;-88
2022/06/13 08:37:40;;;;;;;9.25;6.32;;;;;;;;;;8466465;28;20044;-95
2022/06/13 08:41:58;;;;;;;9.23;6.80;;;;;;;;;;8455986;28;20050;-92
2022/06/13 08:46:17;;;;;;;9.52;6.22;;;;;;;;;;8449476;28;20048;-86
2022/06/13 08:50:37;;;;;;;13.35;7.10;;;;;;;;;;8446177;28;20415;-86
2022/06/13 08:54:47;;;;;;;11.85;6.18;;;;;;;;;;8464207;28;20149;-87
2022/06/13 08:58:56;;;;;;;12.30;5.97;;;;;;;;;;8465387;28;20035;-86
2022/06/13 09:03:11;;;;;;;9.02;6.18;;;;;;;;;;8450324;28;20150;-86
2022/06/13 09:07:29;;;;;;;13.15;8.65;;;;;;;;;;8464659;28;20040;-84
2022/06/13 09:11:46;;;;;;;21.13;11.10;;;;;;;;;;8450232;28;20044;-83
2022/06/13 09:15:54;;;;;;;12.18;7.93;;;;;;;;;;8464551;28;20468;-83
2022/06/13 09:20:06;;;;;;;25.33;16.13;;;;;;;;;;8449873;28;20126;-83
2022/06/13 09:24:17;;;;;;;13.90;8.18;;;;;;;;;;8498914;27;20616;-84
2022/06/13 09:28:30;;;;;;;14.90;7.90;;;;;;;;;;8523653;27;20049;-83
2022/06/13 09:32:42;;;;;;;9.90;7.25;;;;;;;;;;8519156;27;20477;-83
2022/06/13 09:36:59;;;;;;;10.27;7.32;;;;;;;;;;8526947;27;20102;-83
2022/06/13 09:41:36;;;;;;;8.60;5.60;;;;;;;;;;8509971;27;20619;-83
2022/06/13 09:45:53;;;;;;;7.88;5.93;;;;;;;;;;8536810;27;20043;-83
2022/06/13 09:50:05;;;;;;;8.27;6.28;;;;;;;;;;8525967;27;20038;-85
2022/06/13 09:54:16;;;;;;;7.03;6.13;;;;;;;;;;8518572;27;20043;-83
2022/06/13 09:58:30;;;;;;;12.05;6.03;;;;;;;;;;8524592;27;20046;-84
2022/06/13 10:02:45;;;;;;;6.93;5.72;;;;;;;;;;8535982;27;20049;-86
2022/06/13 10:06:51;;;;;;;9.10;5.50;;;;;;;;;;8535792;27;20034;-85
2022/06/13 10:11:01;;;;;;;7.38;5.63;;;;;;;;;;8536000;27;20436;-85
2022/06/13 10:15:25;;;;;;;7.43;5.80;;;;;;;;;;8525331;27;20422;-88
2022/06/13 10:19:39;;;;;;;7.85;5.95;;;;;;;;;;8528480;27;20042;-93
2022/06/13 10:23:51;;;;;;;7.82;5.70;;;;;;;;;;8535340;27;20055;-92
2022/06/13 10:28:06;;;;;;;8.02;5.70;;;;;;;;;;8531560;27;20051;-93
2022/06/13 10:32:22;;;;;;;8.07;6.25;;;;;;;;;;8511532;27;20066;-90
2022/06/13 10:36:35;;;;;;;7.22;5.68;;;;;;;;;;8528587;27;20038;-86
2022/06/13 10:40:39;;;;;;;9.30;5.80;;;;;;;;;;8534571;27;20397;-84
2022/06/13 10:44:42;;;;;;;17.58;10.60;;;;;;;;;;8534243;27;20038;-91
2022/06/13 10:48:50;;;;;;;18.23;9.45;;;;;;;;;;8534370;27;20050;-88
2022/06/13 10:53:07;;;;;;;19.63;9.40;;;;;;;;;;8528928;27;20042;-85
2022/06/13 10:57:15;;;;;;;7.53;4.93;;;;;;;;;;8533903;27;20425;-86
2022/06/13 11:01:20;;;;;;;7.00;4.72;;;;;;;;;;8532879;27;20037;-85
2022/06/13 11:05:26;;;;;;;6.78;5.70;;;;;;;;;;8516920;27;20095;-86
2022/06/13 11:09:44;;;;;;;8.45;5.18;;;;;;;;;;8492020;27;20418;-85
2022/06/13 11:14:01;;;;;;;5.70;4.63;;;;;;;;;;8527713;27;20061;-86
2022/06/13 11:22:40;;;;;;;5.78;4.65;;;;;;;;;;8531600;27;20050;-92
2022/06/13 11:27:43;;;;;;;8.57;4.82;;;;;;;;;;8523217;27;20057;-88
2022/06/13 11:32:00;;;;;;;6.97;4.78;;;;;;;;;;8508609;27;20046;-89
2022/06/13 11:41:54;;;;;;;8.18;5.03;;;;;;;;;;8531705;27;20413;-89
2022/06/13 11:46:31;;;;;;;5.30;4.45;;;;;;;;;;8523553;27;20393;-87
2022/06/13 11:50:36;;;;;;;6.30;5.10;;;;;;;;;;8529701;27;20049;-86
2022/06/13 11:54:44;;;;;;;8.63;4.97;;;;;;;;;;8528069;27;20481;-85
2022/06/13 11:58:56;;;;;;;9.15;5.30;;;;;;;;;;8532627;27;20038;-85
2022/06/13 12:03:20;;;;;;;10.10;5.60;;;;;;;;;;8494465;27;20534;-86
2022/06/13 12:07:26;;;;;;;7.88;5.72;;;;;;;;;;8518347;27;20145;-89
2022/06/13 12:11:32;;;;;;;8.18;5.95;;;;;;;;;;8511452;27;20058;-86
2022/06/13 12:15:42;;;;;;;7.47;5.38;;;;;;;;;;8516528;27;20141;-86
2022/06/13 12:19:57;;;;;;;7.57;6.78;;;;;;;;;;8532067;27;20042;-85
2022/06/13 12:24:09;;;;;;;7.28;6.03;;;;;;;;;;8531345;27;20095;-84
2022/06/13 12:28:19;;;;;;;8.85;6.30;;;;;;;;;;8509684;27;20050;-87
2022/06/13 12:32:26;;;;;;;12.15;6.60;;;;;;;;;;8516849;27;20154;-85
2022/06/13 12:36:57;;;;;;;9.07;6.20;;;;;;;;;;8531386;27;20047;-85
2022/06/13 12:41:13;;;;;;;7.95;6.13;;;;;;;;;;8516335;27;20039;-87
2022/06/13 12:45:52;;;;;;;6.80;5.65;;;;;;;;;;8516488;27;20043;-89
2022/06/13 12:50:10;;;;;;;10.38;6.35;;;;;;;;;;8495891;27;20412;-87
2022/06/13 12:54:51;;;;;;;10.32;5.13;;;;;;;;;;8530442;27;20046;-88
2022/06/13 12:59:08;;;;;;;6.82;4.63;;;;;;;;;;8499207;27;20073;-87
2022/06/13 13:03:28;;;;;;;7.72;4.80;;;;;;;;;;8528361;27;20057;-91
2022/06/13 13:07:46;;;;;;;7.50;4.88;;;;;;;;;;8511967;27;20045;-85
2022/06/13 13:12:10;;;;;;;6.63;5.05;;;;;;;;;;8493706;27;20410;-85
2022/06/13 13:16:20;;;;;;;5.75;4.55;;;;;;;;;;8508999;27;20622;-86
2022/06/13 13:20:34;;;;;;;7.68;5.00;;;;;;;;;;8494643;27;20038;-85
2022/06/13 13:24:59;;;;;;;9.18;5.25;;;;;;;;;;8526658;27;20050;-87
2022/06/13 13:29:21;;;;;;;6.47;5.53;;;;;;;;;;8532467;27;20043;-87
2022/06/13 13:34:18;;;;;;;8.80;5.68;;;;;;;;;;8510723;27;20051;-87
2022/06/13 13:38:54;;;;;;;6.78;5.00;;;;;;;;;;8531264;27;20047;-91
2022/06/13 13:43:35;;;;;;;6.75;3.90;;;;;;;;;;8530402;27;20077;-92
2022/06/13 13:48:45;;;;;;;3.30;2.50;;;;;;;;;;8524395;27;20087;-92
2022/06/13 13:53:10;;;;;;;2.90;2.40;;;;;;;;;;8396527;28;20487;-86
2022/06/13 13:57:47;;;;;;;4.65;2.40;;;;;;;;;;8346044;28;20454;-94
2022/06/13 14:02:06;;;;;;;4.68;1.92;;;;;;;;;;8400731;28;20057;-93
2022/06/13 14:06:19;;;;;;;3.28;2.00;;;;;;;;;;8386840;28;20060;-86
2022/06/13 14:10:31;;;;;;;3.03;1.75;;;;;;;;;;8403004;28;20072;-90
2022/06/13 14:15:08;;;;;;;4.63;2.40;;;;;;;;;;8400582;28;20534;-89
2022/06/13 14:19:22;;;;;;;3.45;2.28;;;;;;;;;;8399690;28;20075;-95
2022/06/13 14:23:40;;;;;;;5.80;2.20;;;;;;;;;;8376978;28;20337;-88
2022/06/13 14:28:03;;;;;;;3.42;2.47;;;;;;;;;;8400275;28;20477;-96
2022/06/13 14:32:09;;;;;;;4.20;2.45;;;;;;;;;;8392118;28;20057;-89
2022/06/13 14:36:13;;;;;;;2.63;2.00;;;;;;;;;;8393814;28;20053;-90
2022/06/13 14:40:42;;;;;;;4.30;2.10;;;;;;;;;;8396820;28;20447;-86
2022/06/13 14:45:09;;;;;;;3.88;2.53;;;;;;;;;;8396241;28;20511;-89
2022/06/13 14:49:26;;;;;;;4.13;2.47;;;;;;;;;;8456666;27;20078;-94
2022/06/13 14:53:47;;;;;;;5.65;3.05;;;;;;;;;;8525107;27;20043;-87
2022/06/13 14:57:57;;;;;;;;;;;;;;;;;;8518932;27;20040;-85
2022/06/13 15:02:26;;;;;;;7.15;3.05;;;;;;;;;;8520754;27;19919;-85
2022/06/13 15:06:32;;;;;;;5.25;3.08;;;;;;;;;;8517223;27;20047;-88
2022/06/13 15:10:41;;;;;;;6.90;3.47;;;;;;;;;;8514526;27;20398;-88
2022/06/13 15:14:50;;;;;;;4.22;2.67;;;;;;;;;;8534022;27;20039;-86
2022/06/13 15:19:03;;;;;;;4.22;2.88;;;;;;;;;;8525522;27;20042;-86
2022/06/13 15:23:11;;;;;;;4.80;2.92;;;;;;;;;;8510485;27;20331;-88
2022/06/13 15:27:20;;;;;;;4.15;2.70;;;;;;;;;;8519178;27;20046;-90
2022/06/13 15:31:43;;;;;;;4.82;3.53;;;;;;;;;;8527618;27;20044;-91
2022/06/13 15:35:54;;;;;;;8.90;4.95;;;;;;;;;;8520003;27;20394;-92
2022/06/13 15:40:06;;;;;;;6.65;3.70;;;;;;;;;;8522958;27;20043;-95
2022/06/13 15:44:25;;;;;;;4.60;3.20;;;;;;;;;;8534080;27;20034;-96
2022/06/13 15:48:37;;;;;;;4.68;3.00;;;;;;;;;;8519361;27;20043;-92
2022/06/13 15:53:03;;;;;;;6.53;3.50;;;;;;;;;;8516583;27;20065;-87
2022/06/13 15:57:18;;;;;;;4.95;3.17;;;;;;;;;;8499878;27;20394;-90
2022/06/13 16:01:42;;;;;;;6.47;3.78;;;;;;;;;;8511265;27;20053;-95
2022/06/13 16:06:04;;;;;;;15.55;10.25;;;;;;;;;;8532069;27;20406;-93
2022/06/13 16:10:20;;;;;;;9.40;5.40;;;;;;;;;;8534236;27;20042;-90
2022/06/13 16:14:40;;;;;;;18.00;9.52;;;;;;;;;;8536855;27;20439;-95
2022/06/13 16:18:50;;;;;;;9.43;5.97;;;;;;;;;;8519567;27;20039;-87
2022/06/13 16:23:13;;;;;;;7.93;4.47;;;;;;;;;;8517722;27;20054;-87
2022/06/13 16:27:30;;;;;;;9.65;5.55;;;;;;;;;;8517785;27;20134;-87
2022/06/13 16:31:46;;;;;;;11.10;6.47;;;;;;;;;;8492845;27;20496;-87
2022/06/13 16:35:58;;;;;;;11.60;6.75;;;;;;;;;;8533629;27;20039;-90
2022/06/13 16:40:35;;;;;;;8.32;5.32;;;;;;;;;;8530157;27;20061;-86
2022/06/13 16:44:49;;;;;;;8.05;5.00;;;;;;;;;;8532802;27;20492;-86
2022/06/13 16:49:04;;;;;;;9.45;5.00;;;;;;;;;;8518163;27;20038;-88
2022/06/13 16:54:11;;;;;;;7.13;4.95;;;;;;;;;;8533433;27;20035;-86
2022/06/13 16:58:53;;;;;;;7.75;4.93;;;;;;;;;;8532817;27;20114;-86
2022/06/13 17:03:16;;;;;;;9.20;5.07;;;;;;;;;;8538615;27;20047;-87
2022/06/13 17:07:29;;;;;;;6.30;4.57;;;;;;;;;;8541850;27;20099;-88
2022/06/13 17:12:00;;;;;;;8.27;5.15;;;;;;;;;;8495049;27;20091;-88
2022/06/13 17:16:14;;;;;;;19.08;8.73;;;;;;;;;;8526061;27;20043;-87
2022/06/13 17:20:26;;;;;;;13.95;7.10;;;;;;;;;;8530106;27;20545;-89
2022/06/13 17:24:32;;;;;;;10.38;6.85;;;;;;;;;;8538634;27;20408;-96
2022/06/13 17:33:06;;;;;;;10.25;5.97;;;;;;;;;;8515774;27;20034;-88
2022/06/13 17:37:11;;;;;;;7.88;4.82;;;;;;;;;;8518436;27;20054;-86
2022/06/13 17:41:16;;;;;;;7.97;4.97;;;;;;;;;;8535078;27;20039;-87
2022/06/13 17:45:20;;;;;;;7.68;5.15;;;;;;;;;;8526989;27;20043;-89
2022/06/13 17:49:25;;;;;;;7.43;4.75;;;;;;;;;;8518673;27;20050;-87
2022/06/13 17:53:30;;;;;;;9.18;5.25;;;;;;;;;;8520545;27;20085;-87
2022/06/13 17:57:34;;;;;;;7.32;4.90;;;;;;;;;;8537707;27;20134;-86
2022/06/13 18:01:38;;;;;;;6.68;4.68;;;;;;;;;;8521975;27;20034;-86
2022/06/13 18:05:44;;;;;;;7.35;4.95;;;;;;;;;;8522365;27;20527;-87
2022/06/13 18:09:49;;;;;;;8.50;5.10;;;;;;;;;;8520241;27;20662;-87
2022/06/13 18:13:55;;;;;;;9.13;5.35;;;;;;;;;;8498552;27;20405;-90
2022/06/13 18:23:05;;;;;;;10.75;5.57;;;;;;;;;;8519187;27;20051;-87
2022/06/13 18:27:12;;;;;;;11.35;5.80;;;;;;;;;;8532594;27;20390;-86
2022/06/13 18:31:21;;;;;;;;;;;;;;;;;;8537504;27;20043;-86
2022/06/13 18:35:25;;;;;;;7.50;5.13;;;;;;;;;;8475021;27;19919;-86
2022/06/13 18:39:31;;;;;;;8.50;4.32;;;;;;;;;;8509648;27;20046;-87
2022/06/13 18:44:35;;;;;;;5.03;3.60;;;;;;;;;;8509198;27;20047;-84
2022/06/13 18:48:50;;;;;;;8.88;3.92;;;;;;;;;;8474822;27;20529;-86
2022/06/13 18:53:13;;;;;;;8.98;4.85;;;;;;;;;;8484758;27;20489;-88
2022/06/13 18:57:29;;;;;;;10.88;5.25;;;;;;;;;;8524379;27;20046;-87
2022/06/13 19:01:38;;;;;;;11.95;6.90;;;;;;;;;;8502523;27;20043;-86
2022/06/13 19:05:52;;;;;;;10.48;6.50;;;;;;;;;;8548211;27;20133;-91
2022/06/13 19:10:02;;;;;;;20.17;8.00;;;;;;;;;;8491729;27;20103;-85
2022/06/13 19:14:19;;;;;;;12.60;6.87;;;;;;;;;;8534533;27;20042;-85
2022/06/13 19:18:27;;;;;;;12.40;5.05;;;;;;;;;;8514302;27;20054;-85
2022/06/13 19:22:43;;;;;;;7.25;4.90;;;;;;;;;;8513779;27;20142;-85
2022/06/13 19:26:49;;;;;;;9.93;5.60;;;;;;;;;;8531373;27;20035;-85
2022/06/13 19:30:53;;;;;;;10.23;4.78;;;;;;;;;;8524026;27;20038;-85
2022/06/13 19:35:04;;;;;;;10.18;4.60;;;;;;;;;;8538165;27;20043;-85
2022/06/13 19:39:11;;;;;;;6.70;4.78;;;;;;;;;;8534817;27;20504;-85
2022/06/13 19:44:06;;;;;;;11.80;5.03;;;;;;;;;;8543518;27;20046;-85
2022/06/13 19:48:15;;;;;;;6.93;4.30;;;;;;;;;;8509853;27;20042;-85
2022/06/13 19:57:07;;;;;;;9.93;5.10;;;;;;;;;;8477887;28;20044;-86
2022/06/13 20:01:14;;;;;;;7.95;4.75;;;;;;;;;;8505082;27;20042;-85
2022/06/13 20:05:25;;;;;;;8.73;4.80;;;;;;;;;;8485633;27;20043;-85
2022/06/13 20:09:29;;;;;;;9.07;4.82;;;;;;;;;;8493262;27;20563;-85
2022/06/13 20:13:44;;;;;;;9.55;5.32;;;;;;;;;;8502009;27;20043;-88
2022/06/13 20:17:52;;;;;;;8.73;4.60;;;;;;;;;;8498391;27;20043;-84
2022/06/13 20:22:03;;;;;;;7.18;4.35;;;;;;;;;;8498558;27;20039;-85
2022/06/13 20:26:06;;;;;;;9.48;4.68;;;;;;;;;;8498081;27;20178;-85
2022/06/13 20:30:12;;;;;;;10.85;5.22;;;;;;;;;;8498851;27;20134;-84
2022/06/13 20:34:18;;;;;;;8.20;4.60;;;;;;;;;;8499031;27;20123;-84
2022/06/13 20:38:26;;;;;;;9.50;4.90;;;;;;;;;;8498153;28;20043;-84
2022/06/13 20:42:32;;;;;;;8.05;4.30;;;;;;;;;;8497950;28;20043;-84
2022/06/13 20:46:36;;;;;;;8.45;4.50;;;;;;;;;;8498104;28;20047;-85
2022/06/13 20:50:42;;;;;;;14.82;5.75;;;;;;;;;;8498451;28;20075;-84
2022/06/13 20:54:47;;;;;;;10.70;4.93;;;;;;;;;;8498756;28;20043;-84
2022/06/13 20:58:51;;;;;;;10.15;5.07;;;;;;;;;;8498645;28;20054;-85
2022/06/13 21:02:56;;;;;;;8.02;5.18;;;;;;;;;;8498138;28;20039;-84
2022/06/13 21:07:00;;;;;;;8.82;4.97;;;;;;;;;;8497175;28;20130;-84
2022/06/13 21:11:04;;;;;;;13.60;4.72;;;;;;;;;;8496888;28;20088;-84
2022/06/13 21:15:12;;;;;;;7.55;4.45;;;;;;;;;;8483893;28;20050;-84
2022/06/13 21:19:14;;;;;;;7.25;4.63;;;;;;;;;;8463256;28;20051;-84
2022/06/13 21:23:18;;;;;;;11.80;4.93;;;;;;;;;;8497086;28;20056;-84
2022/06/13 21:27:23;;;;;;;9.82;4.68;;;;;;;;;;8497641;28;20092;-84
2022/06/13 21:31:26;;;;;;;9.57;4.97;;;;;;;;;;8498128;28;20047;-84
2022/06/13 21:35:29;;;;;;;6.88;4.97;;;;;;;;;;8498224;28;20095;-84
2022/06/13 21:39:31;;;;;;;9.30;4.65;;;;;;;;;;8497564;28;20043;-84
2022/06/13 21:43:37;;;;;;;9.88;5.13;;;;;;;;;;8493599;28;20386;-84
2022/06/13 21:47:41;;;;;;;9.15;4.68;;;;;;;;;;8501843;27;20039;-84
2022/06/13 21:51:44;;;;;;;7.25;4.65;;;;;;;;;;8504657;27;20047;-84
2022/06/13 21:55:47;;;;;;;7.35;4.68;;;;;;;;;;8503495;27;20084;-84
2022/06/13 21:59:52;;;;;;;7.65;4.35;;;;;;;;;;8503218;27;20039;-84
2022/06/13 22:03:54;;;;;;;8.63;4.53;;;;;;;;;;8503270;27;20035;-84
2022/06/13 22:07:57;;;;;;;7.47;4.38;;;;;;;;;;8502612;27;20087;-84
2022/06/13 22:12:00;;;;;;;6.82;4.40;;;;;;;;;;8503061;27;20039;-84
2022/06/13 22:16:06;;;;;;;6.15;4.20;;;;;;;;;;8504033;27;20114;-84
2022/06/13 22:20:11;;;;;;;10.80;4.65;;;;;;;;;;8502441;27;20051;-85
2022/06/13 22:24:13;;;;;;;8.02;4.47;;;;;;;;;;8502462;27;20429;-85
2022/06/13 22:28:16;;;;;;;7.43;4.30;;;;;;;;;;8501847;27;20039;-85
2022/06/13 22:32:21;;;;;;;7.07;4.32;;;;;;;;;;8486946;27;20118;-85
2022/06/13 22:36:23;;;;;;;5.95;3.90;;;;;;;;;;8501444;27;20088;-85
2022/06/13 22:40:28;;;;;;;6.35;4.63;;;;;;;;;;8501521;27;20046;-85
2022/06/13 22:44:45;;;;;;;12.80;4.30;;;;;;;;;;8501219;27;20043;-85
2022/06/13 22:53:10;;;;;;;6.28;4.40;;;;;;;;;;8501244;27;20054;-84
2022/06/13 22:57:13;;;;;;;9.43;4.63;;;;;;;;;;8500891;27;20043;-85
2022/06/13 23:01:15;;;;;;;7.45;4.07;;;;;;;;;;8500993;27;20055;-85
2022/06/13 23:05:22;;;;;;;10.05;5.90;;;;;;;;;;8502051;27;20043;-85
2022/06/13 23:09:25;;;;;;;7.65;4.60;;;;;;;;;;8501197;27;20050;-85
2022/06/13 23:13:27;;;;;;;11.80;4.43;;;;;;;;;;8500544;27;20088;-85
2022/06/13 23:17:30;;;;;;;6.80;4.57;;;;;;;;;;8491837;27;20078;-87
2022/06/13 23:21:34;;;;;;;8.82;4.35;;;;;;;;;;8499286;27;20031;-84
2022/06/13 23:25:37;;;;;;;8.57;4.35;;;;;;;;;;8502642;27;20497;-84
2022/06/13 23:29:40;;;;;;;6.25;4.22;;;;;;;;;;8492428;27;20056;-84
2022/06/13 23:33:42;;;;;;;8.15;4.20;;;;;;;;;;8498738;27;20055;-84
2022/06/13 23:37:46;;;;;;;7.13;4.40;;;;;;;;;;8490969;27;20039;-87
2022/06/13 23:41:49;;;;;;;9.63;4.18;;;;;;;;;;8503241;27;20098;-84
2022/06/13 23:46:11;;;;;;;7.27;4.30;;;;;;;;;;8506969;27;20073;-83
2022/06/13 23:50:38;;;;;;;10.77;4.60;;;;;;;;;;8486762;27;20100;-84
2022/06/13 23:55:01;;;;;;;6.63;4.15;;;;;;;;;;8499585;27;20712;-85
2022/06/13 23:59:22;;;;;;;9.45;4.10;;;;;;;;;;8498748;27;20418;-84
